This is the latest recevied weather packets stored in our database for station/object IN3MWE-10. If no packets are shown the sender has not sent any weather packets the latest 10 day(s).
| Time | Temp. | Humidity | Pressure | Rain* | Wind** | Luminosity | Snow |
|---|---|---|---|---|---|---|---|
| 1787729717 | 23.33° C | 66% | 983.1 hPa | - | - | - | - |
| 1787728817 | 20° C | 81% | 983.2 hPa | - | - | - | - |
| 1787727917 | 18.89° C | 83% | 983.1 hPa | - | - | - | - |
| 1787727017 | 18.33° C | 83% | 983.1 hPa | - | - | - | - |
| 1787726116 | 18.33° C | 84% | 983.3 hPa | - | - | - | - |
| 1787725216 | 18.33° C | 85% | 983.3 hPa | - | - | - | - |
| 1787724316 | 17.78° C | 87% | 983.3 hPa | - | - | - | - |
| 1787723416 | 18.33° C | 88% | 983.4 hPa | - | - | - | - |
| 1787722516 | 17.78° C | 89% | 983.4 hPa | - | - | - | - |
| 1787721616 | 17.78° C | 85% | 983.1 hPa | - | - | - | - |
| 1787720716 | 17.78° C | 88% | 983.1 hPa | - | - | - | - |
| 1787719816 | 17.78° C | 87% | 983 hPa | - | - | - | - |
| 1787718915 | 17.78° C | 86% | 982.7 hPa | - | - | - | - |
| 1787718015 | 17.78° C | 86% | 982.5 hPa | - | - | - | - |
| 1787717115 | 18.33° C | 84% | 982.4 hPa | - | - | - | - |
| 1787716215 | 17.78° C | 87% | 982.4 hPa | - | - | - | - |
| 1787715315 | 17.78° C | 86% | 982.5 hPa | - | - | - | - |
| 1787714415 | 17.78° C | 92% | 982.5 hPa | - | - | - | - |
| 1787713514 | 17.22° C | 98% | 982.5 hPa | - | - | - | - |
| 1787712628 | 18.33° C | 93% | 982.3 hPa | - | - | - | - |
| 1787711728 | 18.33° C | 86% | 982.1 hPa | - | - | - | - |
| 1787710828 | 18.33° C | 87% | 982.1 hPa | - | - | - | - |
| 1787709927 | 18.89° C | 81% | 981.9 hPa | - | - | - | - |
| 1787709027 | 18.89° C | 80% | 981.8 hPa | - | - | - | - |
| 1787708127 | 18.89° C | 81% | 981.7 hPa | - | - | - | - |
* Rain since midnight (hover to see other rain measurements)
** Current wind speed in m/s (hover to see current wind gust speed)